Karen-l — WDD7770 — position and weather

sailwx.info

Track history (hours):
 
Tides and Currents Weather Stations Pressure Air Temp Water Temp Dewpoint Dewpoint Depression Visibility Wind Speed Wind Dir Waves Ship Positions

Karen-l

Owner: Karen L inc, barnegat light, NJ. More information available from US FCC via Universal Licensing System and Coast Guard Vessel Documentation Center.

Last reported at 2017-Nov-17 16:45 UTC. Time now 2017-Nov-21 10:24 UTC.
Position N 39°45' W 074°07'.

Length 20 m.

Type: Fishing. MMSI: 367191080.

Date/timePositionNaut miles runAvg speedWind from/ knotsBaromVisibWave heightAir tempDewpointWater temp
2017-Nov-17 16:45N 39°45' W 074°07'0 0.0
2017-Nov-17 16:21N 39°45' W 074°07'0 0.0
2017-Nov-17 15:51N 39°45' W 074°07'0 0.0
2017-Nov-17 15:27N 39°45' W 074°07'0 0.0
2017-Nov-17 14:57N 39°45' W 074°07'0 0.0
2017-Nov-17 14:27N 39°45' W 074°07'0 0.0
2017-Nov-17 13:51N 39°45' W 074°07'0 0.0
2017-Nov-17 13:27N 39°45' W 074°07'0 0.0
2017-Nov-17 12:45N 39°45' W 074°07'0 0.0
2017-Nov-17 12:27N 39°45' W 074°07'0 0.0
2017-Nov-17 11:57N 39°45' W 074°07'0 0.0
2017-Nov-17 11:27N 39°45' W 074°07'0 0.0
2017-Nov-17 11:00N 39°45' W 074°07'0 0.0
2017-Nov-17 10:21N 39°45' W 074°07'0 0.0
2017-Nov-17 09:57N 39°45' W 074°07'0 0.0
2017-Nov-17 09:24N 39°45' W 074°07'0 0.0
2017-Nov-17 08:57N 39°45' W 074°07'0 0.0
2017-Nov-17 08:30N 39°45' W 074°07'0 0.0
2017-Nov-17 07:54N 39°45' W 074°07'0 0.0
2017-Nov-17 07:27N 39°45' W 074°07'0 0.0
2017-Nov-17 06:51N 39°45' W 074°07'0 0.0
2017-Nov-17 06:27N 39°45' W 074°07'0 0.0
2017-Nov-17 05:57N 39°45' W 074°07'0 0.0
2017-Nov-17 05:27N 39°45' W 074°07'0 0.0
2017-Nov-17 04:39N 39°45' W 074°07'0 0.0
2017-Nov-17 04:30N 39°45' W 074°07'0 0.0
2017-Nov-17 03:36N 39°45' W 074°07'0 0.0
2017-Nov-17 03:21N 39°45' W 074°07'0 0.0
2017-Nov-17 02:15N 39°45' W 074°07'0 0.0
2017-Nov-17 01:51N 39°45' W 074°07'0 0.0
2017-Nov-17 01:27N 39°45' W 074°07'0 0.0
2017-Nov-17 01:00N 39°45' W 074°07'0 0.0
2017-Nov-17 00:24N 39°45' W 074°07'0 0.0
2017-Nov-16 23:57N 39°45' W 074°07'0 0.0
2017-Nov-16 23:24N 39°45' W 074°07'0 0.0
2017-Nov-16 22:45N 39°45' W 074°07'0 0.0
2017-Nov-16 22:27N 39°45' W 074°07'0 0.0
2017-Nov-16 21:51N 39°45' W 074°07'0 0.0
2017-Nov-16 21:24N 39°45' W 074°07'0 0.0
2017-Nov-16 20:51N 39°45' W 074°07'0 0.0
2017-Nov-16 20:21N 39°45' W 074°07'0 0.0
2017-Nov-16 19:57N 39°45' W 074°07'0 0.0
2017-Nov-16 19:27N 39°45' W 074°07'0 0.0
2017-Nov-16 18:57N 39°45' W 074°07'0 0.0
2017-Nov-16 18:27N 39°45' W 074°07'0 0.0
2017-Nov-16 18:00N 39°45' W 074°07'0 0.0
2017-Nov-16 17:27N 39°45' W 074°07'0 0.0
2017-Nov-16 16:57N 39°45' W 074°07'0 0.0
2017-Nov-16 16:21N 39°45' W 074°07'0 0.0
2017-Nov-16 15:57N 39°45' W 074°07'0 0.0
2017-Nov-16 15:27N 39°45' W 074°07'0 0.0
2017-Nov-16 14:57N 39°45' W 074°07'0 0.0
2017-Nov-16 14:27N 39°45' W 074°07'0 0.0
2017-Nov-16 13:57N 39°45' W 074°07'0 0.0
2017-Nov-16 13:24N 39°45' W 074°07'0 0.0
2017-Nov-16 12:57N 39°45' W 074°07'0 0.0
2017-Nov-16 12:27N 39°45' W 074°07'0 0.0
2017-Nov-16 11:57N 39°45' W 074°07'0 0.0
2017-Nov-16 11:29N 39°45' W 074°07'2 3.3
2017-Nov-16 11:00N 39°46' W 074°05'1 2.7
2017-Nov-16 10:30N 39°46' W 074°03'0 0.7
2017-Nov-16 09:59N 39°46' W 074°04'1 2.5
2017-Nov-16 09:30N 39°46' W 074°02'2 3.7
2017-Nov-16 09:00N 39°47' W 073°60'2 3.8
2017-Nov-16 08:30N 39°47' W 073°57'2 4.8
2017-Nov-16 08:00N 39°48' W 073°54'0 0.0
2017-Nov-15 14:12N 39°47' W 073°54'2 7.3
2017-Nov-15 13:59N 39°47' W 073°56'4 7.3
2017-Nov-15 13:30N 39°46' W 074°00'  
Track history (hours):
 
Tides and Currents Weather Stations Pressure Air Temp Water Temp Dewpoint Dewpoint Depression Visibility Wind Speed Wind Dir Waves Ship Positions

Karen-l

Owner: Karen L inc, barnegat light, NJ. More information available from US FCC via Universal Licensing System and Coast Guard Vessel Documentation Center.

Last reported at 2017-Nov-17 16:45 UTC. Time now 2017-Nov-21 10:24 UTC.
Position N 39°45' W 074°07'.

Length 20 m.

Type: Fishing. MMSI: 367191080.

Date/timePositionNaut miles runAvg speedWind from/ knotsBaromVisibWave heightAir tempDewpointWater temp
2017-Nov-17 16:45N 39°45' W 074°07'0 0.0
2017-Nov-17 16:21N 39°45' W 074°07'0 0.0
2017-Nov-17 15:51N 39°45' W 074°07'0 0.0
2017-Nov-17 15:27N 39°45' W 074°07'0 0.0
2017-Nov-17 14:57N 39°45' W 074°07'0 0.0
2017-Nov-17 14:27N 39°45' W 074°07'0 0.0
2017-Nov-17 13:51N 39°45' W 074°07'0 0.0
2017-Nov-17 13:27N 39°45' W 074°07'0 0.0
2017-Nov-17 12:45N 39°45' W 074°07'0 0.0
2017-Nov-17 12:27N 39°45' W 074°07'0 0.0
2017-Nov-17 11:57N 39°45' W 074°07'0 0.0
2017-Nov-17 11:27N 39°45' W 074°07'0 0.0
2017-Nov-17 11:00N 39°45' W 074°07'0 0.0
2017-Nov-17 10:21N 39°45' W 074°07'0 0.0
2017-Nov-17 09:57N 39°45' W 074°07'0 0.0
2017-Nov-17 09:24N 39°45' W 074°07'0 0.0
2017-Nov-17 08:57N 39°45' W 074°07'0 0.0
2017-Nov-17 08:30N 39°45' W 074°07'0 0.0
2017-Nov-17 07:54N 39°45' W 074°07'0 0.0
2017-Nov-17 07:27N 39°45' W 074°07'0 0.0
2017-Nov-17 06:51N 39°45' W 074°07'0 0.0
2017-Nov-17 06:27N 39°45' W 074°07'0 0.0
2017-Nov-17 05:57N 39°45' W 074°07'0 0.0
2017-Nov-17 05:27N 39°45' W 074°07'0 0.0
2017-Nov-17 04:39N 39°45' W 074°07'0 0.0
2017-Nov-17 04:30N 39°45' W 074°07'0 0.0
2017-Nov-17 03:36N 39°45' W 074°07'0 0.0
2017-Nov-17 03:21N 39°45' W 074°07'0 0.0
2017-Nov-17 02:15N 39°45' W 074°07'0 0.0
2017-Nov-17 01:51N 39°45' W 074°07'0 0.0
2017-Nov-17 01:27N 39°45' W 074°07'0 0.0
2017-Nov-17 01:00N 39°45' W 074°07'0 0.0
2017-Nov-17 00:24N 39°45' W 074°07'0 0.0
2017-Nov-16 23:57N 39°45' W 074°07'0 0.0
2017-Nov-16 23:24N 39°45' W 074°07'0 0.0
2017-Nov-16 22:45N 39°45' W 074°07'0 0.0
2017-Nov-16 22:27N 39°45' W 074°07'0 0.0
2017-Nov-16 21:51N 39°45' W 074°07'0 0.0
2017-Nov-16 21:24N 39°45' W 074°07'0 0.0
2017-Nov-16 20:51N 39°45' W 074°07'0 0.0
2017-Nov-16 20:21N 39°45' W 074°07'0 0.0
2017-Nov-16 19:57N 39°45' W 074°07'0 0.0
2017-Nov-16 19:27N 39°45' W 074°07'0 0.0
2017-Nov-16 18:57N 39°45' W 074°07'0 0.0
2017-Nov-16 18:27N 39°45' W 074°07'0 0.0
2017-Nov-16 18:00N 39°45' W 074°07'0 0.0
2017-Nov-16 17:27N 39°45' W 074°07'0 0.0
2017-Nov-16 16:57N 39°45' W 074°07'0 0.0
2017-Nov-16 16:21N 39°45' W 074°07'0 0.0
2017-Nov-16 15:57N 39°45' W 074°07'0 0.0
2017-Nov-16 15:27N 39°45' W 074°07'0 0.0
2017-Nov-16 14:57N 39°45' W 074°07'0 0.0
2017-Nov-16 14:27N 39°45' W 074°07'0 0.0
2017-Nov-16 13:57N 39°45' W 074°07'0 0.0
2017-Nov-16 13:24N 39°45' W 074°07'0 0.0
2017-Nov-16 12:57N 39°45' W 074°07'0 0.0
2017-Nov-16 12:27N 39°45' W 074°07'0 0.0
2017-Nov-16 11:57N 39°45' W 074°07'0 0.0
2017-Nov-16 11:29N 39°45' W 074°07'2 3.3
2017-Nov-16 11:00N 39°46' W 074°05'1 2.7
2017-Nov-16 10:30N 39°46' W 074°03'0 0.7
2017-Nov-16 09:59N 39°46' W 074°04'1 2.5
2017-Nov-16 09:30N 39°46' W 074°02'2 3.7
2017-Nov-16 09:00N 39°47' W 073°60'2 3.8
2017-Nov-16 08:30N 39°47' W 073°57'2 4.8
2017-Nov-16 08:00N 39°48' W 073°54'0 0.0
2017-Nov-15 14:12N 39°47' W 073°54'2 7.3
2017-Nov-15 13:59N 39°47' W 073°56'4 7.3
2017-Nov-15 13:30N 39°46' W 074°00'  

Dump ship's entire track history